createdAt,value
2022-10-01T00:02:00.358Z,19.95
2022-10-01T00:04:27.702Z,20.00
2022-10-01T00:06:54.781Z,22.05
2022-10-01T00:09:21.724Z,21.60
2022-10-01T00:11:48.661Z,20.17
2022-10-01T00:14:15.786Z,21.65
2022-10-01T00:16:43.117Z,20.40
2022-10-01T00:19:13.841Z,20.27
2022-10-01T00:21:41.104Z,23.67
2022-10-01T00:24:08.014Z,22.10
2022-10-01T00:26:37.720Z,21.65
2022-10-01T00:29:11.732Z,25.20
2022-10-01T00:31:39.482Z,24.77
2022-10-01T00:34:06.807Z,25.77
2022-10-01T00:36:34.737Z,23.35
2022-10-01T00:39:02.244Z,29.13
2022-10-01T00:41:34.994Z,22.08
2022-10-01T00:44:24.166Z,23.17
2022-10-01T00:46:51.872Z,26.35
2022-10-01T00:49:24.331Z,26.90
2022-10-01T00:51:58.136Z,22.48
2022-10-01T00:54:41.471Z,29.23
2022-10-01T00:57:10.775Z,28.08
2022-10-01T00:59:37.924Z,28.92
2022-10-01T01:02:05.083Z,22.85
2022-10-01T01:04:32.666Z,23.45
2022-10-01T01:07:04.502Z,26.45
2022-10-01T01:09:39.032Z,23.63
2022-10-01T01:12:36.367Z,22.63
2022-10-01T01:15:03.200Z,21.05
2022-10-01T01:18:09.771Z,22.63
2022-10-01T01:20:50.483Z,23.95
2022-10-01T01:23:17.346Z,19.73
2022-10-01T01:25:54.636Z,26.48
2022-10-01T01:28:31.860Z,22.42
2022-10-01T01:31:05.953Z,24.13
2022-10-01T01:33:37.347Z,26.10
2022-10-01T01:36:09.977Z,29.17
2022-10-01T01:38:43.177Z,30.67
2022-10-01T01:41:12.716Z,28.50
2022-10-01T01:43:44.834Z,28.92
2022-10-01T01:46:13.712Z,27.10
2022-10-01T01:48:44.388Z,34.00
2022-10-01T01:51:25.114Z,29.75
2022-10-01T01:53:52.240Z,32.25
2022-10-01T01:56:19.172Z,31.77
2022-10-01T01:58:47.080Z,28.90
2022-10-01T02:01:39.372Z,33.13
2022-10-01T02:04:13.149Z,29.17
2022-10-01T02:07:17.137Z,31.63
2022-10-01T02:10:00.388Z,33.60
2022-10-01T02:13:01.983Z,33.15
2022-10-01T02:15:37.369Z,37.72
2022-10-01T02:18:16.758Z,34.80
2022-10-01T02:21:08.595Z,34.38
2022-10-01T02:23:42.956Z,35.60
2022-10-01T02:26:17.852Z,33.92
2022-10-01T02:28:48.055Z,38.47
2022-10-01T02:31:18.155Z,33.00
2022-10-01T02:33:47.121Z,29.88
2022-10-01T02:36:16.087Z,33.05
2022-10-01T02:38:45.962Z,33.53
2022-10-01T02:41:18.267Z,31.45
2022-10-01T02:43:53.907Z,31.48
2022-10-01T02:46:28.666Z,29.55
2022-10-01T02:48:57.068Z,27.13
2022-10-01T02:51:26.957Z,23.30
2022-10-01T02:54:05.364Z,23.58
2022-10-01T02:56:56.035Z,23.17
2022-10-01T02:59:23.202Z,24.05
2022-10-01T03:01:50.270Z,23.42
2022-10-01T03:04:19.342Z,23.58
2022-10-01T03:06:46.525Z,24.50
2022-10-01T03:09:14.001Z,22.48
2022-10-01T03:11:42.573Z,24.42
2022-10-01T03:14:10.890Z,19.27
2022-10-01T03:16:37.822Z,21.90
2022-10-01T03:19:04.869Z,18.23
2022-10-01T03:21:32.029Z,22.58
2022-10-01T03:23:59.236Z,18.85
2022-10-01T03:26:26.357Z,20.10
2022-10-01T03:28:53.358Z,21.02
2022-10-01T03:31:20.513Z,18.15
2022-10-01T03:33:47.540Z,17.25
2022-10-01T03:36:14.758Z,24.30
2022-10-01T03:38:41.739Z,20.88
2022-10-01T03:41:09.242Z,19.50
2022-10-01T03:43:36.207Z,21.25
2022-10-01T03:46:03.267Z,23.20
2022-10-01T03:48:30.439Z,22.70
2022-10-01T03:50:59.198Z,21.65
2022-10-01T03:53:28.163Z,21.60
2022-10-01T03:55:55.393Z,28.13
2022-10-01T03:58:23.433Z,23.27
2022-10-01T04:00:51.065Z,23.52
2022-10-01T04:03:18.659Z,21.00
2022-10-01T04:06:04.282Z,24.23
2022-10-01T04:08:31.384Z,22.15
2022-10-01T04:10:58.531Z,20.42
2022-10-01T04:13:25.981Z,21.33
2022-10-01T04:15:53.125Z,23.13
2022-10-01T04:18:21.677Z,21.95
2022-10-01T04:20:48.938Z,20.02
2022-10-01T04:23:16.095Z,21.95
2022-10-01T04:25:43.097Z,18.02
2022-10-01T04:28:13.485Z,20.08
2022-10-01T04:30:42.362Z,21.08
2022-10-01T04:33:13.247Z,18.45
2022-10-01T04:35:41.032Z,21.95
2022-10-01T04:38:13.129Z,21.02
2022-10-01T04:40:40.087Z,20.80
2022-10-01T04:43:09.745Z,23.83
2022-10-01T04:45:39.693Z,24.73
2022-10-01T04:48:06.667Z,22.13
2022-10-01T04:50:33.595Z,23.05
2022-10-01T04:53:00.692Z,23.92
2022-10-01T04:55:27.664Z,28.15
2022-10-01T04:57:54.550Z,26.25
2022-10-01T05:00:26.821Z,24.77
2022-10-01T05:02:54.316Z,20.48
2022-10-01T05:05:23.889Z,18.92
2022-10-01T05:07:51.141Z,20.35
2022-10-01T05:10:21.113Z,22.75
2022-10-01T05:12:49.045Z,27.90
2022-10-01T05:15:17.516Z,31.08
2022-10-01T05:17:44.620Z,27.30
2022-10-01T05:20:20.405Z,27.92
2022-10-01T05:22:49.516Z,33.28
2022-10-01T05:25:17.219Z,27.75
2022-10-01T05:27:44.525Z,29.38
2022-10-01T05:30:13.270Z,32.72
2022-10-01T05:32:40.657Z,27.60
2022-10-01T05:35:08.462Z,33.00
2022-10-01T05:37:35.841Z,36.25
2022-10-01T05:40:03.015Z,38.70
2022-10-01T05:42:31.144Z,38.05
2022-10-01T05:44:58.155Z,40.00
2022-10-01T05:47:25.147Z,38.55
2022-10-01T05:49:52.613Z,32.38
2022-10-01T05:52:19.589Z,33.75
2022-10-01T05:54:46.561Z,37.65
2022-10-01T05:57:13.803Z,35.13
2022-10-01T05:59:40.873Z,31.02
2022-10-01T06:02:10.150Z,36.53
2022-10-01T06:04:41.050Z,39.25
2022-10-01T06:07:08.340Z,32.13
2022-10-01T06:09:35.233Z,37.47
2022-10-01T06:12:02.741Z,38.83
2022-10-01T06:14:29.855Z,37.55
2022-10-01T06:16:56.954Z,45.17
2022-10-01T06:19:23.919Z,47.33
2022-10-01T06:21:51.814Z,43.22
2022-10-01T06:24:18.818Z,40.42
2022-10-01T06:26:45.754Z,44.35
2022-10-01T06:29:12.795Z,47.53
2022-10-01T06:31:39.846Z,43.65
2022-10-01T06:34:06.895Z,41.42
2022-10-01T06:36:34.381Z,46.90
2022-10-01T06:39:01.455Z,45.55
2022-10-01T06:41:28.510Z,43.38
2022-10-01T06:43:55.482Z,45.72
2022-10-01T06:46:22.625Z,38.17
2022-10-01T06:48:49.947Z,40.35
2022-10-01T06:51:36.999Z,38.63
2022-10-01T06:54:04.761Z,44.75
2022-10-01T06:56:31.633Z,39.22
2022-10-01T06:58:58.630Z,38.67
2022-10-01T07:01:25.611Z,42.45
2022-10-01T07:03:54.239Z,40.53
2022-10-01T07:06:21.123Z,40.05
2022-10-01T07:08:50.857Z,37.28
2022-10-01T07:11:19.195Z,40.70
2022-10-01T07:13:46.630Z,36.80
2022-10-01T07:16:15.970Z,37.90
2022-10-01T07:18:42.991Z,38.60
2022-10-01T07:21:10.003Z,38.65
2022-10-01T07:23:36.937Z,39.80
2022-10-01T07:26:09.271Z,38.60
2022-10-01T07:28:36.317Z,33.90
2022-10-01T07:31:12.727Z,38.38
2022-10-01T07:33:40.068Z,31.42
2022-10-01T07:36:09.306Z,31.92
2022-10-01T07:38:36.700Z,35.35
2022-10-01T07:41:04.686Z,42.85
2022-10-01T07:43:33.241Z,35.90
2022-10-01T07:46:02.092Z,35.35
2022-10-01T07:48:29.084Z,46.58
2022-10-01T07:50:56.642Z,37.28
2022-10-01T07:53:25.442Z,32.92
2022-10-01T07:55:52.353Z,32.95
2022-10-01T07:58:22.032Z,41.17
2022-10-01T08:00:48.984Z,45.15
2022-10-01T08:03:16.072Z,37.95
2022-10-01T08:05:43.475Z,33.03
2022-10-01T08:08:10.499Z,33.50
2022-10-01T08:10:38.908Z,31.67
2022-10-01T08:13:14.524Z,31.73
2022-10-01T08:15:43.820Z,35.33
2022-10-01T08:18:11.548Z,34.50
2022-10-01T08:20:42.174Z,43.03
2022-10-01T08:23:11.597Z,34.30
2022-10-01T08:25:39.888Z,35.47
2022-10-01T08:28:08.635Z,32.08
2022-10-01T08:30:39.484Z,33.92
2022-10-01T08:33:06.846Z,31.52
2022-10-01T08:35:34.069Z,30.13
2022-10-01T08:38:05.085Z,28.73
2022-10-01T08:40:41.559Z,31.17
2022-10-01T08:43:18.153Z,29.35
2022-10-01T08:45:55.418Z,31.65
2022-10-01T08:48:40.807Z,32.25
2022-10-01T08:51:15.804Z,33.30
2022-10-01T08:53:54.850Z,31.15
2022-10-01T08:56:24.736Z,32.95
2022-10-01T08:59:00.680Z,32.65
2022-10-01T09:01:29.793Z,30.55
2022-10-01T09:03:58.943Z,33.47
2022-10-01T09:06:28.021Z,33.22
2022-10-01T09:09:00.789Z,32.67
2022-10-01T09:11:55.233Z,47.50
2022-10-01T09:14:46.784Z,39.70
2022-10-01T09:17:16.672Z,35.00
2022-10-01T09:20:15.830Z,42.15
2022-10-01T09:23:16.150Z,47.17
2022-10-01T09:25:46.434Z,42.58
2022-10-01T09:28:16.526Z,48.10
2022-10-01T09:30:54.923Z,45.88
2022-10-01T09:33:23.357Z,49.90
2022-10-01T09:35:56.741Z,47.42
2022-10-01T09:38:29.575Z,52.03
2022-10-01T09:40:58.509Z,48.65
2022-10-01T09:43:31.267Z,47.42
2022-10-01T09:45:58.786Z,42.92
2022-10-01T09:48:46.259Z,40.65
2022-10-01T09:51:22.476Z,36.03
2022-10-01T09:54:37.953Z,38.88
2022-10-01T09:57:09.690Z,35.30
2022-10-01T09:59:45.805Z,42.17
2022-10-01T10:02:38.079Z,38.13
2022-10-01T10:05:08.350Z,43.28
2022-10-01T10:07:36.627Z,40.63
2022-10-01T10:10:25.763Z,41.92
2022-10-01T10:13:24.512Z,41.53
2022-10-01T10:15:56.444Z,47.10
2022-10-01T10:18:29.322Z,42.45
2022-10-01T10:20:59.311Z,50.50
2022-10-01T10:23:26.935Z,49.42
2022-10-01T10:26:28.700Z,45.35
2022-10-01T10:28:58.759Z,49.30
2022-10-01T10:31:28.173Z,45.70
2022-10-01T10:34:06.645Z,50.13
2022-10-01T10:36:36.796Z,45.55
2022-10-01T10:39:07.339Z,49.88
2022-10-01T10:41:34.965Z,49.70
2022-10-01T10:44:07.489Z,48.45
2022-10-01T10:46:37.248Z,47.35
2022-10-01T10:49:21.919Z,44.13
2022-10-01T10:51:51.596Z,46.95
2022-10-01T10:54:23.653Z,45.97
2022-10-01T10:57:15.815Z,47.20
2022-10-01T10:59:42.673Z,45.97
2022-10-01T11:02:19.577Z,48.30
2022-10-01T11:04:47.293Z,50.88
2022-10-01T11:07:21.336Z,45.97
2022-10-01T11:10:06.249Z,39.35
2022-10-01T11:12:36.745Z,48.13
2022-10-01T11:15:21.893Z,42.95
2022-10-01T11:18:10.736Z,42.13
2022-10-01T11:21:00.328Z,34.13
2022-10-01T11:23:52.082Z,36.55
2022-10-01T11:27:00.633Z,31.75
2022-10-01T11:29:36.467Z,30.73
2022-10-01T11:32:46.257Z,27.00
2022-10-01T11:35:30.442Z,27.27
2022-10-01T11:38:18.435Z,29.10
2022-10-01T11:41:08.258Z,23.25
2022-10-01T11:43:41.092Z,28.05
2022-10-01T11:46:27.535Z,28.30
2022-10-01T11:49:02.429Z,25.52
2022-10-01T11:51:38.470Z,27.55
2022-10-01T11:57:09.252Z,31.63
2022-10-01T11:59:50.077Z,35.58
2022-10-01T12:02:28.403Z,35.15
2022-10-01T12:05:00.136Z,34.80
2022-10-01T12:07:47.178Z,30.77
2022-10-01T12:10:38.942Z,28.67
2022-10-01T12:13:08.992Z,31.48
2022-10-01T12:15:47.681Z,30.55
2022-10-01T12:18:27.318Z,27.77
2022-10-01T12:20:59.188Z,34.28
2022-10-01T12:23:39.974Z,28.83
2022-10-01T12:26:36.165Z,31.55
2022-10-01T12:29:38.807Z,24.90
2022-10-01T12:32:16.275Z,27.90
2022-10-01T12:34:55.132Z,26.50
2022-10-01T12:38:08.775Z,27.65
2022-10-01T12:40:58.694Z,22.15
2022-10-01T12:43:40.569Z,21.17
2022-10-01T12:46:16.702Z,17.65
2022-10-01T12:49:11.450Z,20.75
2022-10-01T12:51:42.061Z,20.60
2022-10-01T12:54:43.251Z,21.00
2022-10-01T12:57:29.113Z,21.52
2022-10-01T13:00:02.376Z,19.60
2022-10-01T13:02:53.233Z,26.77
2022-10-01T13:05:35.073Z,23.00
2022-10-01T13:08:32.610Z,19.65
2022-10-01T13:11:37.471Z,18.35
2022-10-01T13:14:07.410Z,23.58
2022-10-01T13:16:37.777Z,19.63
2022-10-01T13:19:25.078Z,19.02
2022-10-01T13:22:18.120Z,16.83
2022-10-01T13:24:50.963Z,21.55
2022-10-01T13:27:36.003Z,20.60
2022-10-01T13:30:18.583Z,17.48
2022-10-01T13:33:01.154Z,17.40
2022-10-01T13:35:35.209Z,17.05
2022-10-01T13:38:15.191Z,22.65
2022-10-01T13:40:42.317Z,17.98
2022-10-01T13:43:16.908Z,25.90
2022-10-01T13:45:49.513Z,20.30
2022-10-01T13:48:19.888Z,18.15
2022-10-01T13:51:03.126Z,18.30
2022-10-01T13:53:33.468Z,16.67
2022-10-01T13:56:00.929Z,18.23
2022-10-01T13:58:46.250Z,18.63
2022-10-01T14:01:25.041Z,16.08
2022-10-01T14:04:07.603Z,16.13
2022-10-01T14:06:37.468Z,20.75
2022-10-01T14:09:16.654Z,17.30
2022-10-01T14:12:06.959Z,16.38
2022-10-01T14:14:58.290Z,15.15
2022-10-01T14:17:29.213Z,16.52
2022-10-01T14:19:57.420Z,14.60
2022-10-01T14:22:46.194Z,15.57
2022-10-01T14:26:04.047Z,16.58
2022-10-01T14:28:42.785Z,17.58
2022-10-01T14:31:29.330Z,18.20
2022-10-01T14:34:02.905Z,26.38
2022-10-01T14:36:35.921Z,24.40
2022-10-01T14:39:14.738Z,25.55
2022-10-01T14:41:42.095Z,24.55
2022-10-01T14:44:27.350Z,23.65
2022-10-01T14:46:57.048Z,23.35
2022-10-01T14:49:27.038Z,22.42
2022-10-01T14:52:05.703Z,20.75
2022-10-01T14:55:04.743Z,16.67
2022-10-01T14:57:49.579Z,20.92
2022-10-01T15:00:23.027Z,17.90
2022-10-01T15:03:02.520Z,17.38
2022-10-01T15:05:35.334Z,18.55
2022-10-01T15:08:40.591Z,20.27
2022-10-01T15:11:13.279Z,16.92
2022-10-01T15:13:43.176Z,17.30
2022-10-01T15:16:17.654Z,21.35
2022-10-01T15:18:53.632Z,17.65
2022-10-01T15:21:27.119Z,22.65
2022-10-01T15:23:54.593Z,21.83
2022-10-01T15:26:31.225Z,22.42
2022-10-01T15:29:06.951Z,20.70
2022-10-01T15:31:34.698Z,24.88
2022-10-01T15:34:04.194Z,21.05
2022-10-01T15:36:32.349Z,19.35
2022-10-01T15:39:02.516Z,21.33
2022-10-01T15:41:32.819Z,19.13
2022-10-01T15:44:04.869Z,19.27
2022-10-01T15:46:35.137Z,21.90
2022-10-01T15:49:14.835Z,22.67
2022-10-01T15:52:16.969Z,26.27
2022-10-01T15:54:46.013Z,24.17
2022-10-01T15:57:22.283Z,21.30
2022-10-01T15:59:52.010Z,23.60
2022-10-01T16:02:24.132Z,28.92
2022-10-01T16:04:56.746Z,25.75
2022-10-01T16:07:29.810Z,20.90
2022-10-01T16:09:59.231Z,21.73
2022-10-01T16:12:29.584Z,20.80
2022-10-01T16:15:02.199Z,19.50
2022-10-01T16:17:34.533Z,25.85
2022-10-01T16:20:38.524Z,23.67
2022-10-01T16:23:43.594Z,23.70
2022-10-01T16:26:32.538Z,21.52
2022-10-01T16:29:11.676Z,23.55
2022-10-01T16:31:43.466Z,32.00
2022-10-01T16:34:16.351Z,20.13
2022-10-01T16:36:44.607Z,23.95
2022-10-01T16:39:15.480Z,29.05
2022-10-01T16:41:56.617Z,22.73
2022-10-01T16:44:38.335Z,25.27
2022-10-01T16:47:05.557Z,21.60
2022-10-01T16:49:33.087Z,21.10
2022-10-01T16:52:00.016Z,21.83
2022-10-01T16:54:27.408Z,26.00
2022-10-01T16:56:55.515Z,21.58
2022-10-01T16:59:24.837Z,25.17
2022-10-01T17:01:55.872Z,20.58
2022-10-01T17:04:23.572Z,18.92
2022-10-01T17:06:50.800Z,18.98
2022-10-01T17:09:17.758Z,21.00
2022-10-01T17:11:44.835Z,23.33
2022-10-01T17:14:18.368Z,24.88
2022-10-01T17:16:45.666Z,18.58
2022-10-01T17:19:13.388Z,28.02
2022-10-01T17:21:41.554Z,18.33
2022-10-01T17:24:11.001Z,19.65
2022-10-01T17:26:40.809Z,25.23
2022-10-01T17:29:09.995Z,21.95
2022-10-01T17:31:40.789Z,24.30
2022-10-01T17:34:08.535Z,28.98
2022-10-01T17:36:35.749Z,21.20
2022-10-01T17:39:03.333Z,21.42
2022-10-01T17:41:30.349Z,24.08
2022-10-01T17:43:57.960Z,25.13
2022-10-01T17:46:24.913Z,26.55
2022-10-01T17:48:52.367Z,22.88
2022-10-01T17:51:19.954Z,25.42
2022-10-01T17:53:48.006Z,24.90
2022-10-01T17:56:17.792Z,23.65
2022-10-01T17:58:46.186Z,20.77
2022-10-01T18:01:20.134Z,25.40
2022-10-01T18:03:47.777Z,27.77
2022-10-01T18:06:16.182Z,22.08
2022-10-01T18:08:58.707Z,21.17
2022-10-01T18:11:27.513Z,27.40
2022-10-01T18:13:54.482Z,17.40
2022-10-01T18:16:22.219Z,21.00
2022-10-01T18:19:52.400Z,19.08
2022-10-01T18:21:45.491Z,23.65
2022-10-01T18:24:12.597Z,25.70
2022-10-01T18:26:39.780Z,21.85
2022-10-01T18:29:06.851Z,22.55
2022-10-01T18:31:40.755Z,25.98
2022-10-01T18:34:40.348Z,28.27
2022-10-01T18:37:12.744Z,25.95
2022-10-01T18:39:47.466Z,26.20
2022-10-01T18:42:23.945Z,27.92
2022-10-01T18:44:59.455Z,30.48
2022-10-01T18:47:33.641Z,44.63
2022-10-01T18:50:21.476Z,47.75
2022-10-01T18:53:18.996Z,69.82
2022-10-01T18:56:07.996Z,44.53
2022-10-01T18:58:50.973Z,45.92
2022-10-01T19:01:27.053Z,31.70
2022-10-01T19:04:02.935Z,38.20
2022-10-01T19:07:01.844Z,38.45
2022-10-01T19:10:08.244Z,41.67
2022-10-01T19:12:57.015Z,53.30
2022-10-01T19:15:47.932Z,67.80
2022-10-01T19:18:48.883Z,42.45
2022-10-01T19:21:26.352Z,41.78
2022-10-01T19:24:10.137Z,38.45
2022-10-01T19:26:55.422Z,42.08
2022-10-01T19:29:49.218Z,38.28
2022-10-01T19:32:26.137Z,40.03
2022-10-01T19:35:03.502Z,35.92
2022-10-01T19:37:41.553Z,36.13
2022-10-01T19:40:23.729Z,40.10
2022-10-01T19:43:28.921Z,37.28
2022-10-01T19:46:01.659Z,36.30
2022-10-01T19:49:13.357Z,43.17
2022-10-01T19:51:48.111Z,31.60
2022-10-01T19:54:27.519Z,38.38
2022-10-01T19:57:02.501Z,40.05
2022-10-01T19:59:30.145Z,34.17
2022-10-01T20:02:05.248Z,36.58
2022-10-01T20:04:39.777Z,26.98
2022-10-01T20:07:36.394Z,24.83
2022-10-01T20:10:25.383Z,27.38
2022-10-01T20:13:09.902Z,25.77
2022-10-01T20:15:44.579Z,21.92
2022-10-01T20:18:36.834Z,23.58
2022-10-01T20:21:09.571Z,27.23
2022-10-01T20:24:17.862Z,21.25
2022-10-01T20:27:00.432Z,22.88
2022-10-01T20:29:39.426Z,21.83
2022-10-01T20:32:22.496Z,19.65
2022-10-01T20:34:52.534Z,24.63
2022-10-01T20:37:35.053Z,38.25
2022-10-01T20:40:26.940Z,20.80
2022-10-01T20:43:03.272Z,24.88
2022-10-01T20:45:34.124Z,28.80
2022-10-01T20:48:22.353Z,24.20
2022-10-01T20:50:54.017Z,21.25
2022-10-01T20:53:30.464Z,23.30
2022-10-01T20:56:04.327Z,29.60
2022-10-01T20:58:44.623Z,34.22
2022-10-01T21:01:26.062Z,26.70
2022-10-01T21:04:01.526Z,35.10
2022-10-01T21:06:43.863Z,23.20
2022-10-01T21:09:27.954Z,30.98
2022-10-01T21:12:02.264Z,17.73
2022-10-01T21:14:36.276Z,30.10
2022-10-01T21:17:17.471Z,29.33
2022-10-01T21:19:59.253Z,26.63
2022-10-01T21:22:57.695Z,28.85
2022-10-01T21:25:30.336Z,37.08
2022-10-01T21:28:04.102Z,39.75
2022-10-01T21:30:43.352Z,39.90
2022-10-01T21:33:24.165Z,48.85
2022-10-01T21:35:56.760Z,41.85
2022-10-01T21:38:30.999Z,44.65
2022-10-01T21:41:52.122Z,53.50
2022-10-01T21:44:30.752Z,81.93
2022-10-01T21:47:09.722Z,124.95
2022-10-01T21:49:51.504Z,108.53
2022-10-01T21:52:38.821Z,91.97
2022-10-01T21:55:24.083Z,81.53
2022-10-01T21:57:56.886Z,58.08
2022-10-01T22:00:26.947Z,61.90
2022-10-01T22:03:07.478Z,50.83
2022-10-01T22:05:57.824Z,38.72
2022-10-01T22:08:55.806Z,32.35
2022-10-01T22:11:27.756Z,19.58
2022-10-01T22:14:02.228Z,21.00
2022-10-01T22:16:35.114Z,21.02
2022-10-01T22:19:18.328Z,16.05
2022-10-01T22:21:50.441Z,16.55
2022-10-01T22:24:36.907Z,15.63
2022-10-01T22:27:22.847Z,16.30
2022-10-01T22:29:58.614Z,15.20
2022-10-01T22:32:31.714Z,16.17
2022-10-01T22:35:07.100Z,13.82
2022-10-01T22:37:42.600Z,10.48
2022-10-01T22:40:10.209Z,10.47
2022-10-01T22:42:42.631Z,13.52
2022-10-01T22:45:14.481Z,12.90
2022-10-01T22:47:53.439Z,9.98
2022-10-01T22:50:30.229Z,9.05
2022-10-01T22:53:34.686Z,16.17
2022-10-01T22:56:01.589Z,8.65
2022-10-01T22:58:59.692Z,11.98
2022-10-01T23:01:26.631Z,11.63
2022-10-01T23:04:16.757Z,10.75
2022-10-01T23:07:01.607Z,9.57
2022-10-01T23:10:00.975Z,9.43
2022-10-01T23:12:37.499Z,10.13
2022-10-01T23:15:29.940Z,8.18
2022-10-01T23:18:15.182Z,11.85
2022-10-01T23:20:53.524Z,7.68
2022-10-01T23:23:41.565Z,6.68
2022-10-01T23:26:17.670Z,6.93
2022-10-01T23:29:02.895Z,6.15
2022-10-01T23:31:35.470Z,6.05
2022-10-01T23:34:27.895Z,6.88
2022-10-01T23:37:07.026Z,6.85
2022-10-01T23:39:54.325Z,6.78
2022-10-01T23:42:59.875Z,6.60
2022-10-01T23:45:55.381Z,9.35
2022-10-01T23:48:36.804Z,6.18
2022-10-01T23:51:06.268Z,7.15
2022-10-01T23:53:40.784Z,6.65
2022-10-01T23:56:31.156Z,6.97
2022-10-01T23:59:04.554Z,8.68
